createdAt,value
2022-08-11T00:01:23.708Z,21.70
2022-08-11T00:03:54.864Z,21.70
2022-08-11T00:06:39.317Z,22.00
2022-08-11T00:09:15.229Z,21.80
2022-08-11T00:11:53.542Z,21.60
2022-08-11T00:14:37.787Z,22.00
2022-08-11T00:17:08.939Z,21.50
2022-08-11T00:20:12.252Z,21.60
2022-08-11T00:22:31.873Z,21.50
2022-08-11T00:25:09.107Z,21.60
2022-08-11T00:27:38.413Z,21.50
2022-08-11T00:30:13.633Z,21.60
2022-08-11T00:32:53.699Z,21.60
2022-08-11T00:35:55.429Z,21.60
2022-08-11T00:38:18.842Z,21.30
2022-08-11T00:41:13.768Z,21.60
2022-08-11T00:43:41.075Z,21.30
2022-08-11T00:46:18.289Z,22.30
2022-08-11T00:48:59.656Z,21.20
2022-08-11T00:52:06.381Z,21.20
2022-08-11T00:55:17.622Z,21.20
2022-08-11T00:58:06.063Z,21.10
2022-08-11T01:00:59.300Z,21.00
2022-08-11T01:04:06.226Z,21.00
2022-08-11T01:08:00.636Z,21.00
2022-08-11T01:10:44.848Z,20.90
2022-08-11T01:13:46.792Z,20.90
2022-08-11T01:16:52.387Z,19.50
2022-08-11T01:20:46.491Z,20.80
2022-08-11T01:23:04.016Z,20.80
2022-08-11T01:26:05.558Z,20.70
2022-08-11T01:29:03.930Z,20.70
2022-08-11T01:31:58.958Z,20.70
2022-08-11T01:34:51.588Z,20.60
2022-08-11T01:37:37.224Z,20.60
2022-08-11T01:40:19.649Z,20.60
2022-08-11T01:43:34.835Z,20.50
2022-08-11T01:46:18.189Z,20.50
2022-08-11T01:48:57.787Z,20.50
2022-08-11T01:51:46.502Z,20.40
2022-08-11T01:54:27.462Z,20.40
2022-08-11T01:57:39.997Z,20.30
2022-08-11T02:00:07.585Z,20.30
2022-08-11T02:02:54.058Z,20.20
2022-08-11T02:05:46.062Z,20.20
2022-08-11T02:08:58.200Z,20.20
2022-08-11T02:11:35.333Z,20.10
2022-08-11T02:14:31.611Z,20.10
2022-08-11T02:17:19.904Z,20.10
2022-08-11T02:20:11.774Z,20.10
2022-08-11T02:24:03.848Z,20.00
2022-08-11T02:26:44.170Z,20.10
2022-08-11T02:29:28.999Z,20.30
2022-08-11T02:32:31.490Z,19.90
2022-08-11T02:35:16.731Z,19.90
2022-08-11T02:37:59.093Z,19.90
2022-08-11T02:40:57.486Z,19.90
2022-08-11T02:43:51.206Z,19.80
2022-08-11T02:46:18.791Z,19.80
2022-08-11T02:49:35.520Z,19.80
2022-08-11T02:52:34.298Z,19.70
2022-08-11T02:55:48.870Z,19.70
2022-08-11T02:58:41.567Z,19.70
2022-08-11T03:01:32.366Z,19.60
2022-08-11T03:04:18.313Z,19.60
2022-08-11T03:07:05.900Z,19.60
2022-08-11T03:10:03.439Z,19.60
2022-08-11T03:13:18.832Z,19.50
2022-08-11T03:16:19.877Z,19.50
2022-08-11T03:19:22.044Z,19.50
2022-08-11T03:22:06.277Z,19.50
2022-08-11T03:24:40.403Z,19.40
2022-08-11T03:27:46.181Z,19.40
2022-08-11T03:30:34.928Z,19.30
2022-08-11T03:33:49.493Z,19.40
2022-08-11T03:37:14.851Z,19.30
2022-08-11T03:40:00.349Z,19.30
2022-08-11T03:42:46.488Z,18.40
2022-08-11T03:45:28.615Z,20.80
2022-08-11T03:48:20.143Z,19.20
2022-08-11T03:51:09.341Z,19.20
2022-08-11T03:54:01.474Z,19.10
2022-08-11T03:56:57.797Z,19.10
2022-08-11T03:59:34.907Z,19.10
2022-08-11T04:02:34.535Z,19.10
2022-08-11T04:05:11.410Z,19.00
2022-08-11T04:08:08.615Z,19.00
2022-08-11T04:10:48.275Z,19.00
2022-08-11T04:13:34.403Z,18.90
2022-08-11T04:16:16.232Z,19.00
2022-08-11T04:18:58.857Z,18.90
2022-08-11T04:21:44.926Z,18.80
2022-08-11T04:24:39.815Z,18.90
2022-08-11T04:27:36.834Z,18.80
2022-08-11T04:30:17.542Z,18.80
2022-08-11T04:33:16.880Z,18.80
2022-08-11T04:36:12.000Z,18.70
2022-08-11T04:39:04.318Z,18.70
2022-08-11T04:42:36.693Z,18.80
2022-08-11T04:45:52.194Z,18.00
2022-08-11T04:49:05.249Z,18.70
2022-08-11T04:52:24.236Z,18.60
2022-08-11T04:55:33.784Z,18.70
2022-08-11T04:58:32.978Z,18.70
2022-08-11T05:01:41.591Z,18.70
2022-08-11T05:04:47.825Z,18.70
2022-08-11T05:07:52.617Z,18.70
2022-08-11T05:10:46.699Z,18.70
2022-08-11T05:13:48.293Z,18.70
2022-08-11T05:16:40.432Z,18.80
2022-08-11T05:19:26.652Z,18.70
2022-08-11T05:22:15.931Z,18.70
2022-08-11T05:25:10.145Z,18.80
2022-08-11T05:28:16.757Z,18.80
2022-08-11T05:31:03.277Z,18.90
2022-08-11T05:34:01.236Z,20.10
2022-08-11T05:36:39.470Z,19.20
2022-08-11T05:39:40.050Z,19.00
2022-08-11T05:42:30.437Z,19.00
2022-08-11T05:45:29.687Z,19.10
2022-08-11T05:48:35.632Z,19.20
2022-08-11T05:51:30.225Z,19.40
2022-08-11T05:54:28.331Z,19.50
2022-08-11T05:57:00.135Z,19.60
2022-08-11T05:59:28.817Z,20.50
2022-08-11T06:02:08.601Z,19.70
2022-08-11T06:04:38.247Z,19.80
2022-08-11T06:07:10.931Z,19.90
2022-08-11T06:09:48.381Z,20.10
2022-08-11T06:12:24.130Z,20.20
2022-08-11T06:14:56.524Z,20.40
2022-08-11T06:17:26.790Z,20.60
2022-08-11T06:20:13.038Z,20.70
2022-08-11T06:22:49.742Z,20.80
2022-08-11T06:25:20.683Z,20.90
2022-08-11T06:27:58.630Z,21.10
2022-08-11T06:30:41.987Z,21.10
2022-08-11T06:33:33.609Z,21.20
2022-08-11T06:36:28.874Z,21.30
2022-08-11T06:39:18.655Z,21.40
2022-08-11T06:41:45.998Z,21.50
2022-08-11T06:44:13.381Z,21.60
2022-08-11T06:46:47.794Z,21.70
2022-08-11T06:49:39.693Z,21.80
2022-08-11T06:52:34.086Z,21.80
2022-08-11T06:55:11.366Z,22.00
2022-08-11T06:58:14.359Z,22.20
2022-08-11T07:00:42.546Z,22.20
2022-08-11T07:03:13.474Z,22.40
2022-08-11T07:06:29.237Z,22.40
2022-08-11T07:09:57.670Z,22.80
2022-08-11T07:13:03.060Z,22.70
2022-08-11T07:16:10.451Z,22.90
2022-08-11T07:18:53.671Z,23.00
2022-08-11T07:22:13.564Z,23.20
2022-08-11T07:25:13.943Z,23.20
2022-08-11T07:28:04.099Z,23.40
2022-08-11T07:30:40.237Z,23.40
2022-08-11T07:33:10.629Z,23.50
2022-08-11T07:35:57.582Z,23.60
2022-08-11T07:38:47.630Z,24.10
2022-08-11T07:41:17.549Z,23.90
2022-08-11T07:43:53.775Z,24.10
2022-08-11T07:46:41.112Z,24.10
2022-08-11T07:49:28.971Z,24.30
2022-08-11T07:52:15.248Z,24.30
2022-08-11T07:54:43.932Z,24.40
2022-08-11T07:57:56.258Z,24.50
2022-08-11T08:00:42.947Z,24.60
2022-08-11T08:03:33.496Z,24.70
2022-08-11T08:06:36.296Z,24.90
2022-08-11T08:09:25.127Z,25.10
2022-08-11T08:12:11.774Z,25.20
2022-08-11T08:14:57.931Z,25.30
2022-08-11T08:18:20.729Z,25.40
2022-08-11T08:20:45.806Z,25.60
2022-08-11T08:23:13.741Z,25.70
2022-08-11T08:25:43.468Z,25.80
2022-08-11T08:28:15.576Z,25.90
2022-08-11T08:30:55.403Z,26.00
2022-08-11T08:33:28.650Z,26.10
2022-08-11T08:36:16.329Z,26.20
2022-08-11T08:38:50.654Z,26.20
2022-08-11T08:41:23.000Z,26.30
2022-08-11T08:43:53.735Z,26.40
2022-08-11T08:46:34.837Z,25.70
2022-08-11T08:49:04.053Z,26.60
2022-08-11T08:51:54.639Z,28.20
2022-08-11T08:54:37.466Z,26.80
2022-08-11T08:57:07.868Z,25.70
2022-08-11T08:59:47.780Z,27.00
2022-08-11T09:02:33.459Z,27.20
2022-08-11T09:05:04.575Z,27.30
2022-08-11T09:07:39.751Z,27.40
2022-08-11T09:10:10.841Z,27.50
2022-08-11T09:12:42.775Z,27.60
2022-08-11T09:15:13.048Z,27.90
2022-08-11T09:17:47.978Z,27.70
2022-08-11T09:20:22.444Z,27.90
2022-08-11T09:24:07.141Z,28.00
2022-08-11T09:26:19.145Z,28.10
2022-08-11T09:28:47.728Z,28.30
2022-08-11T09:31:16.463Z,28.40
2022-08-11T09:33:44.720Z,28.50
2022-08-11T09:36:40.117Z,28.60
2022-08-11T09:39:26.407Z,28.60
2022-08-11T09:42:00.925Z,28.70
2022-08-11T09:44:50.111Z,28.90
2022-08-11T09:47:40.454Z,29.10
2022-08-11T09:50:10.385Z,29.10
2022-08-11T09:52:57.232Z,29.10
2022-08-11T09:55:29.562Z,29.20
2022-08-11T09:58:41.867Z,29.30
2022-08-11T10:01:05.429Z,29.30
2022-08-11T10:03:40.283Z,29.40
2022-08-11T10:06:34.301Z,29.40
2022-08-11T10:09:06.290Z,29.50
2022-08-11T10:11:37.701Z,29.30
2022-08-11T10:14:32.253Z,29.70
2022-08-11T10:17:08.985Z,29.80
2022-08-11T10:19:38.000Z,30.10
2022-08-11T10:22:26.870Z,30.10
2022-08-11T10:25:19.777Z,30.00
2022-08-11T10:28:17.104Z,30.20
2022-08-11T10:31:05.799Z,30.50
2022-08-11T10:33:59.482Z,30.30
2022-08-11T10:36:29.164Z,30.40
2022-08-11T10:38:58.614Z,30.60
2022-08-11T10:42:08.619Z,30.60
2022-08-11T10:44:42.046Z,31.20
2022-08-11T10:47:31.541Z,30.70
2022-08-11T10:50:19.069Z,30.90
2022-08-11T10:53:07.806Z,30.80
2022-08-11T10:55:58.626Z,30.90
2022-08-11T10:58:45.574Z,30.90
2022-08-11T11:01:15.138Z,31.00
2022-08-11T11:03:43.809Z,31.10
2022-08-11T11:06:44.985Z,31.20
2022-08-11T11:09:18.090Z,31.30
2022-08-11T11:12:17.573Z,31.20
2022-08-11T11:15:06.727Z,31.30
2022-08-11T11:17:57.688Z,31.50
2022-08-11T11:20:37.670Z,31.40
2022-08-11T11:23:23.696Z,31.40
2022-08-11T11:26:09.928Z,31.40
2022-08-11T11:28:43.504Z,31.50
2022-08-11T11:31:15.604Z,31.50
2022-08-11T11:34:21.051Z,31.60
2022-08-11T11:36:50.524Z,31.50
2022-08-11T11:39:28.996Z,29.80
2022-08-11T11:42:01.461Z,31.60
2022-08-11T11:44:29.993Z,31.60
2022-08-11T11:46:58.672Z,31.80
2022-08-11T11:49:29.334Z,31.80
2022-08-11T11:51:58.570Z,31.90
2022-08-11T11:54:29.888Z,31.90
2022-08-11T11:57:19.430Z,32.00
2022-08-11T12:00:08.917Z,32.00
2022-08-11T12:02:39.136Z,32.00
2022-08-11T12:05:08.338Z,32.70
2022-08-11T12:07:56.835Z,32.10
2022-08-11T12:10:37.460Z,32.10
2022-08-11T12:13:24.336Z,32.20
2022-08-11T12:16:32.824Z,32.20
2022-08-11T12:18:42.880Z,32.40
2022-08-11T12:21:10.930Z,32.40
2022-08-11T12:24:02.270Z,32.50
2022-08-11T12:27:16.344Z,32.60
2022-08-11T12:29:51.381Z,31.90
2022-08-11T12:32:24.822Z,32.60
2022-08-11T12:34:53.035Z,32.70
2022-08-11T12:37:29.687Z,32.70
2022-08-11T12:40:50.086Z,32.80
2022-08-11T12:43:41.897Z,32.80
2022-08-11T12:46:31.895Z,32.90
2022-08-11T12:49:22.725Z,32.90
2022-08-11T12:52:11.926Z,32.30
2022-08-11T12:55:02.282Z,33.00
2022-08-11T12:58:17.257Z,33.10
2022-08-11T13:01:05.365Z,33.10
2022-08-11T13:03:56.596Z,33.10
2022-08-11T13:06:25.782Z,33.20
2022-08-11T13:09:00.973Z,33.20
2022-08-11T13:11:56.153Z,33.20
2022-08-11T13:14:27.340Z,33.40
2022-08-11T13:17:13.842Z,33.30
2022-08-11T13:19:48.849Z,33.00
2022-08-11T13:22:19.610Z,32.00
2022-08-11T13:24:48.962Z,33.40
2022-08-11T13:27:18.884Z,33.40
2022-08-11T13:29:47.741Z,33.60
2022-08-11T13:32:19.178Z,33.50
2022-08-11T13:34:47.385Z,33.50
2022-08-11T13:37:16.430Z,33.50
2022-08-11T13:39:48.711Z,33.50
2022-08-11T13:42:20.268Z,33.50
2022-08-11T13:44:50.910Z,33.40
2022-08-11T13:47:23.645Z,33.50
2022-08-11T13:49:52.609Z,33.50
2022-08-11T13:52:20.925Z,33.50
2022-08-11T13:54:53.226Z,33.60
2022-08-11T13:58:07.596Z,33.70
2022-08-11T14:00:12.925Z,34.70
2022-08-11T14:02:54.098Z,33.70
2022-08-11T14:05:28.586Z,33.80
2022-08-11T14:08:01.190Z,33.70
2022-08-11T14:10:31.248Z,33.70
2022-08-11T14:13:42.582Z,33.70
2022-08-11T14:16:41.054Z,33.60
2022-08-11T14:19:13.486Z,33.60
2022-08-11T14:22:07.084Z,33.70
2022-08-11T14:24:41.124Z,33.70
2022-08-11T14:28:25.930Z,33.60
2022-08-11T14:29:58.675Z,33.60
2022-08-11T14:32:27.723Z,33.60
2022-08-11T14:34:55.904Z,33.70
2022-08-11T14:37:25.853Z,33.00
2022-08-11T14:40:02.220Z,33.70
2022-08-11T14:42:49.506Z,33.60
2022-08-11T14:45:57.992Z,33.70
2022-08-11T14:48:24.348Z,33.70
2022-08-11T14:50:53.047Z,33.70
2022-08-11T14:53:24.233Z,33.60
2022-08-11T14:56:10.975Z,33.70
2022-08-11T14:58:40.328Z,32.50
2022-08-11T15:01:28.087Z,33.60
2022-08-11T15:04:25.023Z,33.70
2022-08-11T15:06:46.535Z,33.70
2022-08-11T15:09:14.670Z,33.70
2022-08-11T15:12:02.245Z,33.60
2022-08-11T15:14:48.856Z,33.80
2022-08-11T15:17:23.927Z,33.60
2022-08-11T15:20:19.274Z,33.70
2022-08-11T15:23:19.749Z,33.80
2022-08-11T15:26:03.175Z,33.60
2022-08-11T15:28:55.573Z,32.60
2022-08-11T15:31:27.680Z,33.50
2022-08-11T15:34:20.051Z,33.60
2022-08-11T15:37:12.548Z,33.60
2022-08-11T15:40:31.949Z,34.50
2022-08-11T15:43:43.846Z,33.50
2022-08-11T15:46:16.739Z,33.60
2022-08-11T15:49:03.081Z,33.40
2022-08-11T15:51:35.976Z,33.40
2022-08-11T15:54:11.692Z,33.20
2022-08-11T15:56:43.176Z,33.40
2022-08-11T15:59:43.209Z,33.20
2022-08-11T16:02:17.707Z,33.30
2022-08-11T16:04:47.317Z,33.20
2022-08-11T16:07:27.275Z,32.70
2022-08-11T16:10:10.783Z,33.10
2022-08-11T16:13:07.252Z,33.30
2022-08-11T16:15:56.858Z,32.30
2022-08-11T16:18:40.627Z,33.10
2022-08-11T16:21:33.966Z,33.00
2022-08-11T16:25:58.137Z,32.90
2022-08-11T16:27:10.281Z,32.80
2022-08-11T16:29:47.995Z,32.80
2022-08-11T16:32:23.724Z,31.10
2022-08-11T16:35:26.683Z,32.60
2022-08-11T16:38:15.477Z,32.60
2022-08-11T16:40:44.382Z,32.60
2022-08-11T16:43:35.421Z,32.50
2022-08-11T16:46:24.302Z,32.40
2022-08-11T16:48:53.610Z,31.30
2022-08-11T16:51:22.556Z,32.30
2022-08-11T16:54:03.991Z,32.30
2022-08-11T16:56:51.514Z,32.20
2022-08-11T16:59:25.854Z,32.10
2022-08-11T17:02:03.031Z,32.10
2022-08-11T17:05:08.773Z,32.00
2022-08-11T17:07:59.311Z,31.90
2022-08-11T17:11:09.122Z,31.80
2022-08-11T17:13:42.521Z,31.80
2022-08-11T17:16:13.585Z,31.70
2022-08-11T17:18:45.655Z,31.70
2022-08-11T17:21:21.881Z,31.70
2022-08-11T17:23:55.928Z,31.70
2022-08-11T17:26:51.629Z,31.60
2022-08-11T17:29:32.941Z,31.50
2022-08-11T17:32:22.404Z,31.40
2022-08-11T17:35:11.894Z,31.40
2022-08-11T17:37:41.061Z,31.30
2022-08-11T17:40:12.337Z,31.20
2022-08-11T17:43:00.170Z,31.20
2022-08-11T17:45:47.133Z,32.80
2022-08-11T17:48:28.153Z,30.90
2022-08-11T17:51:07.118Z,30.90
2022-08-11T17:54:18.179Z,30.70
2022-08-11T17:57:20.127Z,30.70
2022-08-11T17:59:56.977Z,30.50
2022-08-11T18:02:47.818Z,30.40
2022-08-11T18:05:20.948Z,30.30
2022-08-11T18:08:11.842Z,30.30
2022-08-11T18:10:59.676Z,30.20
2022-08-11T18:13:48.510Z,30.10
2022-08-11T18:16:34.809Z,30.00
2022-08-11T18:19:20.754Z,30.00
2022-08-11T18:22:15.402Z,29.90
2022-08-11T18:25:14.065Z,29.80
2022-08-11T18:28:03.329Z,29.70
2022-08-11T18:31:03.676Z,29.60
2022-08-11T18:34:10.013Z,29.60
2022-08-11T18:37:19.567Z,29.50
2022-08-11T18:40:26.740Z,29.40
2022-08-11T18:43:16.183Z,29.30
2022-08-11T18:46:07.734Z,29.30
2022-08-11T18:49:05.755Z,29.20
2022-08-11T18:51:52.984Z,29.10
2022-08-11T18:54:41.472Z,29.00
2022-08-11T18:57:29.198Z,28.90
2022-08-11T19:00:20.605Z,28.90
2022-08-11T19:03:07.378Z,28.80
2022-08-11T19:06:35.809Z,28.80
2022-08-11T19:09:21.031Z,28.60
2022-08-11T19:12:07.909Z,28.50
2022-08-11T19:14:56.091Z,28.40
2022-08-11T19:17:45.878Z,28.30
2022-08-11T19:20:35.874Z,28.30
2022-08-11T19:23:24.788Z,28.20
2022-08-11T19:26:11.508Z,28.10
2022-08-11T19:28:59.864Z,28.00
2022-08-11T19:31:46.649Z,27.90
2022-08-11T19:34:39.514Z,27.90
2022-08-11T19:37:26.569Z,27.80
2022-08-11T19:40:26.438Z,27.70
2022-08-11T19:43:25.845Z,27.60
2022-08-11T19:46:18.909Z,27.60
2022-08-11T19:49:09.673Z,27.50
2022-08-11T19:51:57.362Z,27.40
2022-08-11T19:54:46.330Z,27.40
2022-08-11T19:57:38.950Z,27.30
2022-08-11T20:00:35.984Z,27.20
2022-08-11T20:03:26.062Z,27.10
2022-08-11T20:06:16.036Z,27.10
2022-08-11T20:09:04.011Z,27.00
2022-08-11T20:11:57.409Z,27.00
2022-08-11T20:14:46.223Z,27.00
2022-08-11T20:17:33.572Z,26.90
2022-08-11T20:20:25.847Z,26.80
2022-08-11T20:23:15.927Z,26.80
2022-08-11T20:26:27.604Z,26.70
2022-08-11T20:29:10.447Z,26.60
2022-08-11T20:31:57.527Z,26.50
2022-08-11T20:34:43.940Z,26.50
2022-08-11T20:37:30.929Z,26.40
2022-08-11T20:40:17.537Z,26.40
2022-08-11T20:44:05.060Z,26.30
2022-08-11T20:46:17.162Z,26.30
2022-08-11T20:49:05.115Z,26.20
2022-08-11T20:51:52.963Z,26.20
2022-08-11T20:54:43.669Z,26.10
2022-08-11T20:57:59.321Z,26.10
2022-08-11T21:00:44.023Z,26.00
2022-08-11T21:03:36.081Z,25.90
2022-08-11T21:06:31.511Z,25.90
2022-08-11T21:09:23.765Z,25.80
2022-08-11T21:12:15.257Z,25.80
2022-08-11T21:15:04.804Z,25.70
2022-08-11T21:18:00.667Z,25.70
2022-08-11T21:20:59.297Z,25.70
2022-08-11T21:23:48.710Z,25.60
2022-08-11T21:26:37.232Z,25.60
2022-08-11T21:29:25.574Z,25.60
2022-08-11T21:32:12.563Z,25.50
2022-08-11T21:35:01.828Z,25.50
2022-08-11T21:37:50.302Z,25.40
2022-08-11T21:40:38.916Z,25.40
2022-08-11T21:43:25.700Z,25.30
2022-08-11T21:46:12.493Z,25.30
2022-08-11T21:49:00.037Z,25.20
2022-08-11T21:51:46.184Z,25.20
2022-08-11T21:54:33.064Z,25.10
2022-08-11T21:57:20.303Z,25.10
2022-08-11T22:00:15.193Z,25.00
2022-08-11T22:03:04.139Z,25.00
2022-08-11T22:05:52.148Z,24.90
2022-08-11T22:08:39.369Z,24.90
2022-08-11T22:11:32.464Z,24.80
2022-08-11T22:14:19.986Z,24.80
2022-08-11T22:17:06.004Z,24.70
2022-08-11T22:19:54.554Z,24.70
2022-08-11T22:22:52.006Z,24.60
2022-08-11T22:25:51.240Z,24.60
2022-08-11T22:28:38.007Z,24.50
2022-08-11T22:31:25.662Z,24.50
2022-08-11T22:34:11.556Z,24.50
2022-08-11T22:36:59.102Z,24.40
2022-08-11T22:40:00.063Z,24.40
2022-08-11T22:42:52.558Z,24.30
2022-08-11T22:45:39.307Z,24.20
2022-08-11T22:48:27.484Z,24.20
2022-08-11T22:51:16.461Z,24.20
2022-08-11T22:54:04.664Z,24.10
2022-08-11T22:56:51.197Z,24.10
2022-08-11T22:59:38.591Z,24.00
2022-08-11T23:02:25.854Z,24.00
2022-08-11T23:05:13.230Z,24.00
2022-08-11T23:08:02.500Z,23.90
2022-08-11T23:10:49.160Z,23.50
2022-08-11T23:13:35.044Z,23.80
2022-08-11T23:16:21.376Z,23.80
2022-08-11T23:19:08.616Z,23.70
2022-08-11T23:21:56.285Z,23.70
2022-08-11T23:24:44.185Z,23.70
2022-08-11T23:27:32.117Z,23.70
2022-08-11T23:30:19.515Z,23.60
2022-08-11T23:33:09.774Z,23.60
2022-08-11T23:36:02.215Z,23.50
2022-08-11T23:38:51.808Z,23.40
2022-08-11T23:41:38.653Z,23.40
2022-08-11T23:44:25.963Z,23.40
2022-08-11T23:47:19.750Z,23.30
2022-08-11T23:50:06.575Z,23.30
2022-08-11T23:52:53.820Z,23.30
2022-08-11T23:55:40.116Z,23.20
2022-08-11T23:58:26.749Z,23.20
